sensor_id;sensor_type;location;lat;lon;timestamp;P1;durP1;ratioP1;P2;durP2;ratioP2
7583;SDS011;3833;41.764;26.204;2023-06-14T00:00:46;8.83;;;5.70;;
7583;SDS011;3833;41.764;26.204;2023-06-14T00:03:13;6.17;;;5.37;;
7583;SDS011;3833;41.764;26.204;2023-06-14T00:05:42;8.77;;;5.80;;
7583;SDS011;3833;41.764;26.204;2023-06-14T00:08:11;6.50;;;5.70;;
7583;SDS011;3833;41.764;26.204;2023-06-14T00:10:40;13.00;;;6.27;;
7583;SDS011;3833;41.764;26.204;2023-06-14T00:13:07;5.70;;;5.20;;
7583;SDS011;3833;41.764;26.204;2023-06-14T00:15:35;13.30;;;5.63;;
7583;SDS011;3833;41.764;26.204;2023-06-14T00:18:02;7.77;;;5.90;;
7583;SDS011;3833;41.764;26.204;2023-06-14T00:20:30;6.50;;;5.57;;
7583;SDS011;3833;41.764;26.204;2023-06-14T00:22:58;7.70;;;5.77;;
7583;SDS011;3833;41.764;26.204;2023-06-14T00:25:25;6.47;;;5.37;;
7583;SDS011;3833;41.764;26.204;2023-06-14T00:27:52;6.07;;;5.47;;
7583;SDS011;3833;41.764;26.204;2023-06-14T00:30:19;6.70;;;5.10;;
7583;SDS011;3833;41.764;26.204;2023-06-14T00:32:47;5.60;;;5.10;;
7583;SDS011;3833;41.764;26.204;2023-06-14T00:35:14;5.73;;;5.17;;
7583;SDS011;3833;41.764;26.204;2023-06-14T00:37:41;5.90;;;5.40;;
7583;SDS011;3833;41.764;26.204;2023-06-14T00:40:08;6.07;;;5.07;;
7583;SDS011;3833;41.764;26.204;2023-06-14T00:42:35;6.27;;;5.17;;
7583;SDS011;3833;41.764;26.204;2023-06-14T00:45:02;5.63;;;5.13;;
7583;SDS011;3833;41.764;26.204;2023-06-14T00:47:30;5.27;;;4.77;;
7583;SDS011;3833;41.764;26.204;2023-06-14T00:49:58;5.83;;;5.30;;
7583;SDS011;3833;41.764;26.204;2023-06-14T00:52:25;5.80;;;4.93;;
7583;SDS011;3833;41.764;26.204;2023-06-14T00:54:52;7.40;;;5.13;;
7583;SDS011;3833;41.764;26.204;2023-06-14T00:57:19;5.90;;;5.40;;
7583;SDS011;3833;41.764;26.204;2023-06-14T00:59:49;5.33;;;4.73;;
7583;SDS011;3833;41.764;26.204;2023-06-14T01:02:16;5.50;;;5.00;;
7583;SDS011;3833;41.764;26.204;2023-06-14T01:04:45;5.87;;;5.37;;
7583;SDS011;3833;41.764;26.204;2023-06-14T01:07:18;5.70;;;5.10;;
7583;SDS011;3833;41.764;26.204;2023-06-14T01:09:55;6.17;;;4.73;;
7583;SDS011;3833;41.764;26.204;2023-06-14T01:12:29;5.23;;;4.83;;
7583;SDS011;3833;41.764;26.204;2023-06-14T01:14:59;5.63;;;4.87;;
7583;SDS011;3833;41.764;26.204;2023-06-14T01:17:26;5.90;;;5.23;;
7583;SDS011;3833;41.764;26.204;2023-06-14T01:19:57;7.30;;;5.10;;
7583;SDS011;3833;41.764;26.204;2023-06-14T01:22:26;5.40;;;4.87;;
7583;SDS011;3833;41.764;26.204;2023-06-14T01:24:55;5.33;;;4.83;;
7583;SDS011;3833;41.764;26.204;2023-06-14T01:27:23;6.47;;;4.87;;
7583;SDS011;3833;41.764;26.204;2023-06-14T01:29:53;7.13;;;4.97;;
7583;SDS011;3833;41.764;26.204;2023-06-14T01:32:21;6.87;;;4.93;;
7583;SDS011;3833;41.764;26.204;2023-06-14T01:34:49;7.97;;;5.40;;
7583;SDS011;3833;41.764;26.204;2023-06-14T01:37:16;6.23;;;5.63;;
7583;SDS011;3833;41.764;26.204;2023-06-14T01:39:43;6.57;;;5.97;;
7583;SDS011;3833;41.764;26.204;2023-06-14T01:42:12;6.50;;;5.80;;
7583;SDS011;3833;41.764;26.204;2023-06-14T01:44:39;7.07;;;6.33;;
7583;SDS011;3833;41.764;26.204;2023-06-14T01:47:06;6.30;;;5.70;;
7583;SDS011;3833;41.764;26.204;2023-06-14T01:49:34;6.10;;;5.57;;
7583;SDS011;3833;41.764;26.204;2023-06-14T01:52:01;5.47;;;4.70;;
7583;SDS011;3833;41.764;26.204;2023-06-14T01:54:27;6.10;;;4.63;;
7583;SDS011;3833;41.764;26.204;2023-06-14T01:56:56;6.63;;;5.20;;
7583;SDS011;3833;41.764;26.204;2023-06-14T01:59:24;5.47;;;4.97;;
7583;SDS011;3833;41.764;26.204;2023-06-14T02:01:51;5.07;;;4.50;;
7583;SDS011;3833;41.764;26.204;2023-06-14T02:04:18;5.07;;;4.57;;
7583;SDS011;3833;41.764;26.204;2023-06-14T02:06:44;5.60;;;5.10;;
7583;SDS011;3833;41.764;26.204;2023-06-14T02:09:11;5.87;;;5.33;;
7583;SDS011;3833;41.764;26.204;2023-06-14T02:11:38;6.37;;;5.17;;
7583;SDS011;3833;41.764;26.204;2023-06-14T02:14:05;6.47;;;5.43;;
7583;SDS011;3833;41.764;26.204;2023-06-14T02:16:37;5.10;;;4.70;;
7583;SDS011;3833;41.764;26.204;2023-06-14T02:19:05;5.70;;;4.40;;
7583;SDS011;3833;41.764;26.204;2023-06-14T02:21:32;5.80;;;4.53;;
7583;SDS011;3833;41.764;26.204;2023-06-14T02:23:59;5.80;;;4.90;;
7583;SDS011;3833;41.764;26.204;2023-06-14T02:26:26;5.10;;;4.70;;
7583;SDS011;3833;41.764;26.204;2023-06-14T02:28:54;5.23;;;4.57;;
7583;SDS011;3833;41.764;26.204;2023-06-14T02:31:20;5.27;;;4.77;;
7583;SDS011;3833;41.764;26.204;2023-06-14T02:33:49;5.00;;;4.50;;
7583;SDS011;3833;41.764;26.204;2023-06-14T02:36:16;7.40;;;4.50;;
7583;SDS011;3833;41.764;26.204;2023-06-14T02:38:42;4.90;;;4.40;;
7583;SDS011;3833;41.764;26.204;2023-06-14T02:41:10;6.00;;;3.93;;
7583;SDS011;3833;41.764;26.204;2023-06-14T02:43:37;4.80;;;4.40;;
7583;SDS011;3833;41.764;26.204;2023-06-14T02:46:04;4.80;;;4.40;;
7583;SDS011;3833;41.764;26.204;2023-06-14T02:48:31;5.60;;;4.67;;
7583;SDS011;3833;41.764;26.204;2023-06-14T02:50:59;4.93;;;4.47;;
7583;SDS011;3833;41.764;26.204;2023-06-14T02:53:26;5.03;;;4.53;;
7583;SDS011;3833;41.764;26.204;2023-06-14T02:55:53;4.83;;;4.43;;
7583;SDS011;3833;41.764;26.204;2023-06-14T02:58:20;4.50;;;4.10;;
7583;SDS011;3833;41.764;26.204;2023-06-14T03:00:50;4.70;;;4.30;;
7583;SDS011;3833;41.764;26.204;2023-06-14T03:03:18;5.93;;;4.87;;
7583;SDS011;3833;41.764;26.204;2023-06-14T03:05:47;4.57;;;4.17;;
7583;SDS011;3833;41.764;26.204;2023-06-14T03:08:16;5.17;;;4.67;;
7583;SDS011;3833;41.764;26.204;2023-06-14T03:10:45;6.00;;;4.40;;
7583;SDS011;3833;41.764;26.204;2023-06-14T03:13:12;4.20;;;3.87;;
7583;SDS011;3833;41.764;26.204;2023-06-14T03:15:41;4.83;;;4.43;;
7583;SDS011;3833;41.764;26.204;2023-06-14T03:18:08;4.80;;;4.40;;
7583;SDS011;3833;41.764;26.204;2023-06-14T03:20:35;5.30;;;4.83;;
7583;SDS011;3833;41.764;26.204;2023-06-14T03:23:02;4.60;;;4.20;;
7583;SDS011;3833;41.764;26.204;2023-06-14T03:25:32;5.17;;;4.53;;
7583;SDS011;3833;41.764;26.204;2023-06-14T03:28:00;4.57;;;4.17;;
7583;SDS011;3833;41.764;26.204;2023-06-14T03:30:27;5.93;;;4.50;;
7583;SDS011;3833;41.764;26.204;2023-06-14T03:32:54;5.03;;;4.53;;
7583;SDS011;3833;41.764;26.204;2023-06-14T03:35:22;4.40;;;4.00;;
7583;SDS011;3833;41.764;26.204;2023-06-14T03:37:49;4.50;;;4.10;;
7583;SDS011;3833;41.764;26.204;2023-06-14T03:40:17;4.17;;;3.87;;
7583;SDS011;3833;41.764;26.204;2023-06-14T03:42:46;4.77;;;4.37;;
7583;SDS011;3833;41.764;26.204;2023-06-14T03:45:13;4.83;;;4.33;;
7583;SDS011;3833;41.764;26.204;2023-06-14T03:47:40;4.33;;;4.00;;
7583;SDS011;3833;41.764;26.204;2023-06-14T03:50:07;4.70;;;4.20;;
7583;SDS011;3833;41.764;26.204;2023-06-14T03:52:34;4.70;;;4.30;;
7583;SDS011;3833;41.764;26.204;2023-06-14T03:55:02;4.80;;;4.30;;
7583;SDS011;3833;41.764;26.204;2023-06-14T03:57:29;4.03;;;3.73;;
7583;SDS011;3833;41.764;26.204;2023-06-14T03:59:58;6.00;;;4.40;;
7583;SDS011;3833;41.764;26.204;2023-06-14T04:02:24;5.43;;;4.07;;
7583;SDS011;3833;41.764;26.204;2023-06-14T04:04:53;4.33;;;4.03;;
7583;SDS011;3833;41.764;26.204;2023-06-14T04:07:21;4.63;;;4.17;;
7583;SDS011;3833;41.764;26.204;2023-06-14T04:09:48;6.73;;;4.27;;
7583;SDS011;3833;41.764;26.204;2023-06-14T04:12:15;5.83;;;4.70;;
7583;SDS011;3833;41.764;26.204;2023-06-14T04:14:42;4.87;;;4.47;;
7583;SDS011;3833;41.764;26.204;2023-06-14T04:17:10;6.33;;;4.30;;
7583;SDS011;3833;41.764;26.204;2023-06-14T04:19:38;4.27;;;3.97;;
7583;SDS011;3833;41.764;26.204;2023-06-14T04:22:05;4.60;;;4.20;;
7583;SDS011;3833;41.764;26.204;2023-06-14T04:24:32;4.43;;;4.03;;
7583;SDS011;3833;41.764;26.204;2023-06-14T04:27:00;4.90;;;4.50;;
7583;SDS011;3833;41.764;26.204;2023-06-14T04:29:27;4.73;;;4.33;;
7583;SDS011;3833;41.764;26.204;2023-06-14T04:31:54;6.70;;;4.73;;
7583;SDS011;3833;41.764;26.204;2023-06-14T04:34:25;6.07;;;4.93;;
7583;SDS011;3833;41.764;26.204;2023-06-14T04:36:55;5.40;;;4.90;;
7583;SDS011;3833;41.764;26.204;2023-06-14T04:39:22;6.93;;;4.67;;
7583;SDS011;3833;41.764;26.204;2023-06-14T04:41:50;5.63;;;4.83;;
7583;SDS011;3833;41.764;26.204;2023-06-14T04:44:21;6.17;;;5.67;;
7583;SDS011;3833;41.764;26.204;2023-06-14T04:46:55;7.93;;;5.90;;
7583;SDS011;3833;41.764;26.204;2023-06-14T04:49:23;5.33;;;4.87;;
7583;SDS011;3833;41.764;26.204;2023-06-14T04:51:57;7.50;;;5.00;;
7583;SDS011;3833;41.764;26.204;2023-06-14T04:54:24;6.90;;;4.87;;
7583;SDS011;3833;41.764;26.204;2023-06-14T04:56:51;5.77;;;4.47;;
7583;SDS011;3833;41.764;26.204;2023-06-14T04:59:18;8.10;;;4.70;;
7583;SDS011;3833;41.764;26.204;2023-06-14T05:01:45;4.87;;;4.47;;
7583;SDS011;3833;41.764;26.204;2023-06-14T05:04:13;7.47;;;4.80;;
7583;SDS011;3833;41.764;26.204;2023-06-14T05:06:42;5.17;;;4.63;;
7583;SDS011;3833;41.764;26.204;2023-06-14T05:09:10;5.10;;;4.60;;
7583;SDS011;3833;41.764;26.204;2023-06-14T05:11:37;6.57;;;5.10;;
7583;SDS011;3833;41.764;26.204;2023-06-14T05:14:04;5.73;;;4.90;;
7583;SDS011;3833;41.764;26.204;2023-06-14T05:16:31;4.90;;;4.40;;
7583;SDS011;3833;41.764;26.204;2023-06-14T05:18:58;5.30;;;4.80;;
7583;SDS011;3833;41.764;26.204;2023-06-14T05:21:26;4.90;;;4.50;;
7583;SDS011;3833;41.764;26.204;2023-06-14T05:23:54;4.63;;;4.23;;
7583;SDS011;3833;41.764;26.204;2023-06-14T05:26:21;4.90;;;4.07;;
7583;SDS011;3833;41.764;26.204;2023-06-14T05:28:50;6.00;;;4.30;;
7583;SDS011;3833;41.764;26.204;2023-06-14T05:31:17;5.70;;;4.70;;
7583;SDS011;3833;41.764;26.204;2023-06-14T05:33:45;4.40;;;4.10;;
7583;SDS011;3833;41.764;26.204;2023-06-14T05:36:11;6.20;;;4.20;;
7583;SDS011;3833;41.764;26.204;2023-06-14T05:38:38;5.57;;;4.47;;
7583;SDS011;3833;41.764;26.204;2023-06-14T05:41:07;4.70;;;3.80;;
7583;SDS011;3833;41.764;26.204;2023-06-14T05:43:34;6.10;;;4.37;;
7583;SDS011;3833;41.764;26.204;2023-06-14T05:46:01;5.30;;;4.37;;
7583;SDS011;3833;41.764;26.204;2023-06-14T05:48:28;4.70;;;4.13;;
7583;SDS011;3833;41.764;26.204;2023-06-14T05:50:55;5.10;;;4.70;;
7583;SDS011;3833;41.764;26.204;2023-06-14T05:53:22;4.50;;;4.10;;
7583;SDS011;3833;41.764;26.204;2023-06-14T05:56:10;4.70;;;4.23;;
7583;SDS011;3833;41.764;26.204;2023-06-14T05:58:37;4.10;;;3.80;;
7583;SDS011;3833;41.764;26.204;2023-06-14T06:01:07;4.83;;;4.27;;
7583;SDS011;3833;41.764;26.204;2023-06-14T06:03:34;6.13;;;5.03;;
7583;SDS011;3833;41.764;26.204;2023-06-14T06:06:01;5.20;;;4.70;;
7583;SDS011;3833;41.764;26.204;2023-06-14T06:08:28;5.20;;;4.60;;
7583;SDS011;3833;41.764;26.204;2023-06-14T06:10:55;8.10;;;4.43;;
7583;SDS011;3833;41.764;26.204;2023-06-14T06:13:23;5.10;;;4.60;;
7583;SDS011;3833;41.764;26.204;2023-06-14T06:15:50;5.10;;;4.70;;
7583;SDS011;3833;41.764;26.204;2023-06-14T06:18:17;4.77;;;4.03;;
7583;SDS011;3833;41.764;26.204;2023-06-14T06:20:44;6.90;;;3.90;;
7583;SDS011;3833;41.764;26.204;2023-06-14T06:23:12;5.60;;;4.27;;
7583;SDS011;3833;41.764;26.204;2023-06-14T06:25:39;4.73;;;4.00;;
7583;SDS011;3833;41.764;26.204;2023-06-14T06:28:06;4.63;;;4.23;;
7583;SDS011;3833;41.764;26.204;2023-06-14T06:30:35;5.07;;;2.93;;
7583;SDS011;3833;41.764;26.204;2023-06-14T06:33:02;5.50;;;4.23;;
7583;SDS011;3833;41.764;26.204;2023-06-14T06:35:29;5.37;;;3.53;;
7583;SDS011;3833;41.764;26.204;2023-06-14T06:37:58;5.60;;;3.80;;
7583;SDS011;3833;41.764;26.204;2023-06-14T06:40:26;4.07;;;3.73;;
7583;SDS011;3833;41.764;26.204;2023-06-14T06:42:53;4.97;;;3.87;;
7583;SDS011;3833;41.764;26.204;2023-06-14T06:45:20;4.00;;;3.60;;
7583;SDS011;3833;41.764;26.204;2023-06-14T06:47:49;5.53;;;3.87;;
7583;SDS011;3833;41.764;26.204;2023-06-14T06:50:17;3.93;;;3.30;;
7583;SDS011;3833;41.764;26.204;2023-06-14T06:52:45;3.97;;;3.13;;
7583;SDS011;3833;41.764;26.204;2023-06-14T06:55:12;4.53;;;3.40;;
7583;SDS011;3833;41.764;26.204;2023-06-14T06:57:38;4.97;;;3.90;;
7583;SDS011;3833;41.764;26.204;2023-06-14T07:00:06;3.67;;;3.03;;
7583;SDS011;3833;41.764;26.204;2023-06-14T07:02:35;4.57;;;3.30;;
7583;SDS011;3833;41.764;26.204;2023-06-14T07:05:04;3.40;;;3.10;;
7583;SDS011;3833;41.764;26.204;2023-06-14T07:07:31;3.83;;;3.53;;
7583;SDS011;3833;41.764;26.204;2023-06-14T07:09:58;4.80;;;3.33;;
7583;SDS011;3833;41.764;26.204;2023-06-14T07:12:25;3.50;;;2.97;;
7583;SDS011;3833;41.764;26.204;2023-06-14T07:14:52;4.30;;;3.83;;
7583;SDS011;3833;41.764;26.204;2023-06-14T07:17:19;3.40;;;3.10;;
7583;SDS011;3833;41.764;26.204;2023-06-14T07:19:46;4.03;;;3.40;;
7583;SDS011;3833;41.764;26.204;2023-06-14T07:22:14;3.23;;;2.60;;
7583;SDS011;3833;41.764;26.204;2023-06-14T07:24:41;3.03;;;2.83;;
7583;SDS011;3833;41.764;26.204;2023-06-14T07:27:08;3.17;;;2.67;;
7583;SDS011;3833;41.764;26.204;2023-06-14T07:29:36;3.63;;;2.83;;
7583;SDS011;3833;41.764;26.204;2023-06-14T07:32:03;3.33;;;3.03;;
7583;SDS011;3833;41.764;26.204;2023-06-14T07:34:30;5.73;;;3.00;;
7583;SDS011;3833;41.764;26.204;2023-06-14T07:36:57;3.67;;;2.87;;
7583;SDS011;3833;41.764;26.204;2023-06-14T07:39:26;6.30;;;3.10;;
7583;SDS011;3833;41.764;26.204;2023-06-14T07:41:53;4.77;;;2.83;;
7583;SDS011;3833;41.764;26.204;2023-06-14T07:44:20;3.07;;;2.70;;
7583;SDS011;3833;41.764;26.204;2023-06-14T07:46:52;4.40;;;2.70;;
7583;SDS011;3833;41.764;26.204;2023-06-14T07:49:23;3.67;;;2.90;;
7583;SDS011;3833;41.764;26.204;2023-06-14T07:51:50;3.80;;;2.67;;
7583;SDS011;3833;41.764;26.204;2023-06-14T07:54:18;5.77;;;2.80;;
7583;SDS011;3833;41.764;26.204;2023-06-14T07:56:47;2.67;;;2.47;;
7583;SDS011;3833;41.764;26.204;2023-06-14T07:59:13;5.40;;;2.80;;
7583;SDS011;3833;41.764;26.204;2023-06-14T08:01:40;3.53;;;2.33;;
7583;SDS011;3833;41.764;26.204;2023-06-14T08:04:13;2.97;;;2.77;;
7583;SDS011;3833;41.764;26.204;2023-06-14T08:06:40;6.33;;;3.37;;
7583;SDS011;3833;41.764;26.204;2023-06-14T08:09:09;2.87;;;2.60;;
7583;SDS011;3833;41.764;26.204;2023-06-14T08:11:36;2.80;;;2.60;;
7583;SDS011;3833;41.764;26.204;2023-06-14T08:14:05;6.27;;;2.67;;
7583;SDS011;3833;41.764;26.204;2023-06-14T08:16:31;2.87;;;2.60;;
7583;SDS011;3833;41.764;26.204;2023-06-14T08:18:58;2.57;;;2.37;;
7583;SDS011;3833;41.764;26.204;2023-06-14T08:21:26;2.50;;;2.30;;
7583;SDS011;3833;41.764;26.204;2023-06-14T08:23:54;4.50;;;2.47;;
7583;SDS011;3833;41.764;26.204;2023-06-14T08:26:21;3.37;;;2.47;;
7583;SDS011;3833;41.764;26.204;2023-06-14T08:28:48;3.03;;;2.47;;
7583;SDS011;3833;41.764;26.204;2023-06-14T08:31:16;2.77;;;2.50;;
7583;SDS011;3833;41.764;26.204;2023-06-14T08:33:43;3.37;;;2.33;;
7583;SDS011;3833;41.764;26.204;2023-06-14T08:36:10;3.90;;;2.63;;
7583;SDS011;3833;41.764;26.204;2023-06-14T08:38:38;3.50;;;2.60;;
7583;SDS011;3833;41.764;26.204;2023-06-14T08:41:05;2.63;;;2.43;;
7583;SDS011;3833;41.764;26.204;2023-06-14T08:43:32;4.80;;;2.20;;
7583;SDS011;3833;41.764;26.204;2023-06-14T08:46:01;2.50;;;2.30;;
7583;SDS011;3833;41.764;26.204;2023-06-14T08:48:31;2.43;;;2.10;;
7583;SDS011;3833;41.764;26.204;2023-06-14T08:50:59;2.50;;;2.30;;
7583;SDS011;3833;41.764;26.204;2023-06-14T08:53:28;2.90;;;2.33;;
7583;SDS011;3833;41.764;26.204;2023-06-14T08:55:57;4.33;;;2.30;;
7583;SDS011;3833;41.764;26.204;2023-06-14T08:58:26;2.53;;;2.33;;
7583;SDS011;3833;41.764;26.204;2023-06-14T09:00:57;2.80;;;2.23;;
7583;SDS011;3833;41.764;26.204;2023-06-14T09:03:24;3.50;;;2.87;;
7583;SDS011;3833;41.764;26.204;2023-06-14T09:05:56;3.40;;;2.47;;
7583;SDS011;3833;41.764;26.204;2023-06-14T09:08:24;2.60;;;2.37;;
7583;SDS011;3833;41.764;26.204;2023-06-14T09:10:51;3.00;;;2.70;;
7583;SDS011;3833;41.764;26.204;2023-06-14T09:13:18;3.37;;;2.70;;
7583;SDS011;3833;41.764;26.204;2023-06-14T09:15:45;2.70;;;2.50;;
7583;SDS011;3833;41.764;26.204;2023-06-14T09:18:12;3.07;;;2.30;;
7583;SDS011;3833;41.764;26.204;2023-06-14T09:20:39;4.67;;;2.50;;
7583;SDS011;3833;41.764;26.204;2023-06-14T09:23:08;2.60;;;2.40;;
7583;SDS011;3833;41.764;26.204;2023-06-14T09:25:42;2.63;;;2.43;;
7583;SDS011;3833;41.764;26.204;2023-06-14T09:28:09;3.07;;;2.77;;
7583;SDS011;3833;41.764;26.204;2023-06-14T09:30:37;2.50;;;2.30;;
7583;SDS011;3833;41.764;26.204;2023-06-14T09:33:04;3.73;;;2.30;;
7583;SDS011;3833;41.764;26.204;2023-06-14T09:35:31;2.70;;;2.50;;
7583;SDS011;3833;41.764;26.204;2023-06-14T09:37:58;3.43;;;2.33;;
7583;SDS011;3833;41.764;26.204;2023-06-14T09:40:30;3.30;;;2.47;;
7583;SDS011;3833;41.764;26.204;2023-06-14T09:43:04;2.90;;;2.50;;
7583;SDS011;3833;41.764;26.204;2023-06-14T09:45:31;6.27;;;2.90;;
7583;SDS011;3833;41.764;26.204;2023-06-14T09:47:58;4.00;;;2.53;;
7583;SDS011;3833;41.764;26.204;2023-06-14T09:50:25;2.50;;;2.30;;
7583;SDS011;3833;41.764;26.204;2023-06-14T09:52:52;3.03;;;2.80;;
7583;SDS011;3833;41.764;26.204;2023-06-14T09:55:23;3.93;;;3.50;;
7583;SDS011;3833;41.764;26.204;2023-06-14T09:57:54;3.57;;;2.87;;
7583;SDS011;3833;41.764;26.204;2023-06-14T10:00:22;3.00;;;2.70;;
7583;SDS011;3833;41.764;26.204;2023-06-14T10:02:53;2.50;;;2.30;;
7583;SDS011;3833;41.764;26.204;2023-06-14T10:05:21;2.73;;;2.53;;
7583;SDS011;3833;41.764;26.204;2023-06-14T10:07:52;3.33;;;2.50;;
7583;SDS011;3833;41.764;26.204;2023-06-14T10:10:20;2.97;;;2.77;;
7583;SDS011;3833;41.764;26.204;2023-06-14T10:12:48;3.47;;;2.50;;
7583;SDS011;3833;41.764;26.204;2023-06-14T10:15:17;2.87;;;2.57;;
7583;SDS011;3833;41.764;26.204;2023-06-14T10:17:50;5.10;;;3.17;;
7583;SDS011;3833;41.764;26.204;2023-06-14T10:20:26;2.80;;;2.50;;
7583;SDS011;3833;41.764;26.204;2023-06-14T10:22:59;2.70;;;2.50;;
7583;SDS011;3833;41.764;26.204;2023-06-14T10:25:28;3.00;;;2.70;;
7583;SDS011;3833;41.764;26.204;2023-06-14T10:28:05;3.50;;;2.50;;
7583;SDS011;3833;41.764;26.204;2023-06-14T10:33:33;3.50;;;2.50;;
7583;SDS011;3833;41.764;26.204;2023-06-14T10:36:07;2.70;;;2.40;;
7583;SDS011;3833;41.764;26.204;2023-06-14T10:38:35;2.63;;;2.43;;
7583;SDS011;3833;41.764;26.204;2023-06-14T10:41:03;2.57;;;2.37;;
7583;SDS011;3833;41.764;26.204;2023-06-14T10:43:32;2.77;;;2.40;;
7583;SDS011;3833;41.764;26.204;2023-06-14T10:46:12;3.47;;;2.40;;
7583;SDS011;3833;41.764;26.204;2023-06-14T10:48:42;2.70;;;2.50;;
7583;SDS011;3833;41.764;26.204;2023-06-14T10:51:16;3.13;;;2.30;;
7583;SDS011;3833;41.764;26.204;2023-06-14T10:53:46;2.60;;;2.40;;
7583;SDS011;3833;41.764;26.204;2023-06-14T10:56:24;2.40;;;2.20;;
7583;SDS011;3833;41.764;26.204;2023-06-14T10:58:55;2.80;;;2.60;;
7583;SDS011;3833;41.764;26.204;2023-06-14T11:01:32;2.87;;;2.67;;
7583;SDS011;3833;41.764;26.204;2023-06-14T11:04:10;2.83;;;2.63;;
7583;SDS011;3833;41.764;26.204;2023-06-14T11:06:47;2.27;;;2.17;;
7583;SDS011;3833;41.764;26.204;2023-06-14T11:09:25;5.17;;;2.23;;
7583;SDS011;3833;41.764;26.204;2023-06-14T11:12:19;3.03;;;2.83;;
7583;SDS011;3833;41.764;26.204;2023-06-14T11:14:48;3.13;;;2.73;;
7583;SDS011;3833;41.764;26.204;2023-06-14T11:17:15;3.50;;;2.73;;
7583;SDS011;3833;41.764;26.204;2023-06-14T11:19:42;2.50;;;2.30;;
7583;SDS011;3833;41.764;26.204;2023-06-14T11:22:10;2.40;;;2.20;;
7583;SDS011;3833;41.764;26.204;2023-06-14T11:24:40;2.57;;;2.37;;
7583;SDS011;3833;41.764;26.204;2023-06-14T11:27:10;2.93;;;2.73;;
7583;SDS011;3833;41.764;26.204;2023-06-14T11:29:38;2.77;;;2.57;;
7583;SDS011;3833;41.764;26.204;2023-06-14T11:32:07;2.57;;;2.37;;
7583;SDS011;3833;41.764;26.204;2023-06-14T11:34:38;2.80;;;2.60;;
7583;SDS011;3833;41.764;26.204;2023-06-14T11:37:05;3.33;;;2.80;;
7583;SDS011;3833;41.764;26.204;2023-06-14T11:39:32;2.87;;;2.57;;
7583;SDS011;3833;41.764;26.204;2023-06-14T11:41:59;2.50;;;2.30;;
7583;SDS011;3833;41.764;26.204;2023-06-14T11:44:28;2.77;;;2.53;;
7583;SDS011;3833;41.764;26.204;2023-06-14T11:46:56;3.07;;;2.83;;
7583;SDS011;3833;41.764;26.204;2023-06-14T11:49:24;2.90;;;2.60;;
7583;SDS011;3833;41.764;26.204;2023-06-14T11:51:52;3.27;;;2.93;;
7583;SDS011;3833;41.764;26.204;2023-06-14T11:54:19;2.63;;;2.43;;
7583;SDS011;3833;41.764;26.204;2023-06-14T11:56:46;2.67;;;2.47;;
7583;SDS011;3833;41.764;26.204;2023-06-14T11:59:14;3.10;;;2.90;;
7583;SDS011;3833;41.764;26.204;2023-06-14T12:01:42;2.97;;;2.50;;
7583;SDS011;3833;41.764;26.204;2023-06-14T12:04:10;2.50;;;2.30;;
7583;SDS011;3833;41.764;26.204;2023-06-14T12:06:38;2.17;;;2.07;;
7583;SDS011;3833;41.764;26.204;2023-06-14T12:09:06;2.20;;;2.10;;
7583;SDS011;3833;41.764;26.204;2023-06-14T12:11:38;3.07;;;2.77;;
7583;SDS011;3833;41.764;26.204;2023-06-14T12:14:05;2.87;;;2.67;;
7583;SDS011;3833;41.764;26.204;2023-06-14T12:16:34;2.67;;;2.47;;
7583;SDS011;3833;41.764;26.204;2023-06-14T12:19:12;2.40;;;2.30;;
7583;SDS011;3833;41.764;26.204;2023-06-14T12:21:41;2.47;;;2.27;;
7583;SDS011;3833;41.764;26.204;2023-06-14T12:24:09;2.67;;;2.47;;
7583;SDS011;3833;41.764;26.204;2023-06-14T12:26:40;4.53;;;2.63;;
7583;SDS011;3833;41.764;26.204;2023-06-14T12:29:07;2.77;;;2.57;;
7583;SDS011;3833;41.764;26.204;2023-06-14T12:31:34;4.07;;;3.20;;
7583;SDS011;3833;41.764;26.204;2023-06-14T12:34:03;2.93;;;2.70;;
7583;SDS011;3833;41.764;26.204;2023-06-14T12:36:30;2.70;;;2.50;;
7583;SDS011;3833;41.764;26.204;2023-06-14T12:38:59;2.97;;;2.70;;
7583;SDS011;3833;41.764;26.204;2023-06-14T12:41:26;3.17;;;2.77;;
7583;SDS011;3833;41.764;26.204;2023-06-14T12:43:53;2.80;;;2.60;;
7583;SDS011;3833;41.764;26.204;2023-06-14T12:46:20;2.90;;;2.70;;
7583;SDS011;3833;41.764;26.204;2023-06-14T12:48:47;4.20;;;2.70;;
7583;SDS011;3833;41.764;26.204;2023-06-14T12:51:14;4.03;;;2.77;;
7583;SDS011;3833;41.764;26.204;2023-06-14T12:53:41;5.07;;;2.53;;
7583;SDS011;3833;41.764;26.204;2023-06-14T12:56:10;2.80;;;2.40;;
7583;SDS011;3833;41.764;26.204;2023-06-14T12:58:37;2.80;;;2.60;;
7583;SDS011;3833;41.764;26.204;2023-06-14T13:01:04;2.63;;;2.43;;
7583;SDS011;3833;41.764;26.204;2023-06-14T13:03:31;2.70;;;2.50;;
7583;SDS011;3833;41.764;26.204;2023-06-14T13:05:59;2.63;;;2.43;;
7583;SDS011;3833;41.764;26.204;2023-06-14T13:08:26;2.53;;;2.33;;
7583;SDS011;3833;41.764;26.204;2023-06-14T13:10:53;4.00;;;2.77;;
7583;SDS011;3833;41.764;26.204;2023-06-14T13:13:22;2.70;;;2.50;;
7583;SDS011;3833;41.764;26.204;2023-06-14T13:15:49;2.70;;;2.50;;
7583;SDS011;3833;41.764;26.204;2023-06-14T13:18:16;2.80;;;2.60;;
7583;SDS011;3833;41.764;26.204;2023-06-14T13:20:44;2.87;;;2.63;;
7583;SDS011;3833;41.764;26.204;2023-06-14T13:23:12;2.87;;;2.53;;
7583;SDS011;3833;41.764;26.204;2023-06-14T13:25:39;2.67;;;2.47;;
7583;SDS011;3833;41.764;26.204;2023-06-14T13:28:06;2.90;;;2.70;;
7583;SDS011;3833;41.764;26.204;2023-06-14T13:30:35;3.03;;;2.73;;
7583;SDS011;3833;41.764;26.204;2023-06-14T13:33:03;3.57;;;2.60;;
7583;SDS011;3833;41.764;26.204;2023-06-14T13:35:30;3.63;;;2.97;;
7583;SDS011;3833;41.764;26.204;2023-06-14T13:37:57;3.13;;;2.93;;
7583;SDS011;3833;41.764;26.204;2023-06-14T13:40:24;3.40;;;2.80;;
7583;SDS011;3833;41.764;26.204;2023-06-14T13:42:51;3.43;;;2.83;;
7583;SDS011;3833;41.764;26.204;2023-06-14T13:45:18;3.00;;;2.80;;
7583;SDS011;3833;41.764;26.204;2023-06-14T13:47:46;3.40;;;3.00;;
7583;SDS011;3833;41.764;26.204;2023-06-14T13:50:14;2.90;;;2.70;;
7583;SDS011;3833;41.764;26.204;2023-06-14T13:52:41;2.87;;;2.67;;
7583;SDS011;3833;41.764;26.204;2023-06-14T13:55:08;3.53;;;2.67;;
7583;SDS011;3833;41.764;26.204;2023-06-14T13:57:36;3.10;;;2.80;;
7583;SDS011;3833;41.764;26.204;2023-06-14T14:00:06;3.00;;;2.80;;
7583;SDS011;3833;41.764;26.204;2023-06-14T14:02:34;3.23;;;3.03;;
7583;SDS011;3833;41.764;26.204;2023-06-14T14:05:03;3.30;;;3.10;;
7583;SDS011;3833;41.764;26.204;2023-06-14T14:07:30;2.93;;;2.73;;
7583;SDS011;3833;41.764;26.204;2023-06-14T14:09:57;3.10;;;2.90;;
7583;SDS011;3833;41.764;26.204;2023-06-14T14:12:24;3.03;;;2.73;;
7583;SDS011;3833;41.764;26.204;2023-06-14T14:14:51;3.03;;;2.83;;
7583;SDS011;3833;41.764;26.204;2023-06-14T14:17:18;4.37;;;3.10;;
7583;SDS011;3833;41.764;26.204;2023-06-14T14:19:45;3.30;;;3.00;;
7583;SDS011;3833;41.764;26.204;2023-06-14T14:22:13;3.00;;;2.80;;
7583;SDS011;3833;41.764;26.204;2023-06-14T14:24:40;3.57;;;3.27;;
7583;SDS011;3833;41.764;26.204;2023-06-14T14:27:07;3.70;;;2.93;;
7583;SDS011;3833;41.764;26.204;2023-06-14T14:29:34;3.23;;;3.03;;
7583;SDS011;3833;41.764;26.204;2023-06-14T14:32:01;3.60;;;3.30;;
7583;SDS011;3833;41.764;26.204;2023-06-14T14:34:28;3.30;;;3.00;;
7583;SDS011;3833;41.764;26.204;2023-06-14T14:36:55;3.10;;;2.90;;
7583;SDS011;3833;41.764;26.204;2023-06-14T14:39:23;3.33;;;3.03;;
7583;SDS011;3833;41.764;26.204;2023-06-14T14:41:50;3.40;;;3.10;;
7583;SDS011;3833;41.764;26.204;2023-06-14T14:44:17;3.33;;;3.03;;
7583;SDS011;3833;41.764;26.204;2023-06-14T14:46:44;2.90;;;2.70;;
7583;SDS011;3833;41.764;26.204;2023-06-14T14:49:11;2.70;;;2.50;;
7583;SDS011;3833;41.764;26.204;2023-06-14T14:51:38;3.00;;;2.57;;
7583;SDS011;3833;41.764;26.204;2023-06-14T14:54:05;3.00;;;2.80;;
7583;SDS011;3833;41.764;26.204;2023-06-14T14:56:33;2.80;;;2.50;;
7583;SDS011;3833;41.764;26.204;2023-06-14T14:59:03;2.97;;;2.70;;
7583;SDS011;3833;41.764;26.204;2023-06-14T15:01:30;3.43;;;3.00;;
7583;SDS011;3833;41.764;26.204;2023-06-14T15:03:57;3.20;;;3.00;;
7583;SDS011;3833;41.764;26.204;2023-06-14T15:06:24;2.83;;;2.60;;
7583;SDS011;3833;41.764;26.204;2023-06-14T15:08:50;2.63;;;2.43;;